KCMX/CMX METAR and TAF weather

Enter ICAO airport designator
Station Type Date Time Source
KCMX METAR 2021/10/24 20:53 UTC NOAA

KCMX 242053Z AUTO 03008KT 10SM FEW027 08/00 A3008 RMK AO2 SLP194 T00830000 58001


Station Type Date Time Source
KCMX Decoded METAR 2021/10/24 20:53 UTC NOAA

HANCOCK HOUGHTON CTY. MEMO, MI, United States (KCMX) 47-10N 088-29W 326M
Oct 24, 2021 - 04:53 PM EDT / 2021.10.24 2053 UTC
Wind: from the NNE (030 degrees) at 9 MPH (8 KT):0
Visibility: 10 mile(s):0
Sky conditions: mostly clear
Temperature: 46.9 F (8.3 C)
Dew Point: 32.0 F (0.0 C)
Relative Humidity: 55%
Pressure (altimeter): 30.08 in. Hg (1018 hPa)
Pressure tendency: 0.00 inches (0.1 hPa) lower than three hours ago
ob: KCMX 242053Z AUTO 03008KT 10SM FEW027 08/00 A3008 RMK AO2 SLP194 T00830000 58001
cycle: 21

Station Type Date Time Source
KCMX TAF 2021/10/24 18:36 UTC NOAA

TAF KCMX 241734Z 2418/2518 03008KT P6SM VCSH SCT020 BKN035
FM250500 06010KT 6SM BR BKN030
FM251500 05011KT P6SM VCSH BKN020

Example: see airport list